Time;durP1;ratioP1;P1;durP2;ratioP2;P2;SDS_P1;SDS_P2;PMS_P1;PMS_P2;Temp;Humidity;BMP_temperature;BMP_pressure;BME280_temperature;BME280_humidity;BME280_pressure;Samples;Min_cycle;Max_cycle;Signal;HPM_P1;HPM_P2
2021/08/02 00:00:52;;;;;;;4.45;1.80;;;;;;;;;;5073717;28;20040;-65
2021/08/02 00:03:40;;;;;;;5.03;1.65;;;;;;;;;;5094124;28;20055;-65
2021/08/02 00:06:25;;;;;;;5.68;2.10;;;;;;;;;;5092131;28;20052;-65
2021/08/02 00:09:11;;;;;;;6.03;1.77;;;;;;;;;;5094099;28;20040;-65
2021/08/02 00:11:59;;;;;;;5.45;2.22;;;;;;;;;;5071076;28;20119;-65
2021/08/02 00:14:46;;;;;;;5.50;2.50;;;;;;;;;;5057551;28;20110;-65
2021/08/02 00:17:31;;;;;;;5.43;2.20;;;;;;;;;;5073656;28;20162;-65
2021/08/02 00:20:20;;;;;;;3.70;2.60;;;;;;;;;;5058021;28;20051;-65
2021/08/02 00:23:07;;;;;;;5.80;2.50;;;;;;;;;;5073854;28;20116;-65
2021/08/02 00:25:53;;;;;;;3.30;2.42;;;;;;;;;;5074355;28;20565;-65
2021/08/02 00:28:38;;;;;;;6.40;3.95;;;;;;;;;;5078107;28;20070;-65
2021/08/02 00:31:23;;;;;;;5.65;2.60;;;;;;;;;;5092089;28;20044;-65
2021/08/02 00:34:08;;;;;;;5.28;3.67;;;;;;;;;;5085303;28;20570;-65
2021/08/02 00:36:59;;;;;;;5.78;2.30;;;;;;;;;;5074093;28;20040;-65
2021/08/02 00:40:00;;;;;;;8.43;2.40;;;;;;;;;;5058228;28;20048;-65
2021/08/02 00:42:53;;;;;;;5.25;2.67;;;;;;;;;;5093725;28;20510;-65
2021/08/02 00:45:39;;;;;;;4.45;2.60;;;;;;;;;;5078315;28;20416;-65
2021/08/02 00:48:28;;;;;;;6.32;2.80;;;;;;;;;;5064114;28;20139;-65
2021/08/02 00:51:15;;;;;;;6.25;2.67;;;;;;;;;;5078182;28;20058;-65
2021/08/02 00:54:01;;;;;;;6.25;2.60;;;;;;;;;;5061076;28;20075;-65
2021/08/02 00:56:47;;;;;;;8.25;2.40;;;;;;;;;;5057792;28;20447;-65
2021/08/02 00:59:33;;;;;;;7.75;2.90;;;;;;;;;;5073140;28;20133;-65
2021/08/02 01:02:19;;;;;;;7.65;2.28;;;;;;;;;;5072755;28;20044;-65
2021/08/02 01:05:07;;;;;;;4.55;2.42;;;;;;;;;;5049771;28;20048;-65
2021/08/02 01:07:59;;;;;;;7.15;2.85;;;;;;;;;;5066416;22;20049;-63
2021/08/02 01:10:47;;;;;;;4.18;2.17;;;;;;;;;;5037631;28;20045;-64
2021/08/02 01:13:35;;;;;;;5.38;2.17;;;;;;;;;;5036784;28;20095;-64
2021/08/02 01:16:21;;;;;;;6.68;2.38;;;;;;;;;;5046414;28;20033;-63
2021/08/02 01:19:10;;;;;;;4.03;1.88;;;;;;;;;;5057359;28;20045;-64
2021/08/02 01:21:58;;;;;;;6.05;2.30;;;;;;;;;;5066943;28;20067;-64
2021/08/02 01:24:44;;;;;;;7.35;2.00;;;;;;;;;;5065295;28;20040;-64
2021/08/02 01:27:43;;;;;;;7.03;1.98;;;;;;;;;;5058548;28;20048;-64
2021/08/02 01:30:32;;;;;;;6.63;2.47;;;;;;;;;;5061599;28;20397;-63
2021/08/02 01:33:19;;;;;;;7.53;2.03;;;;;;;;;;5066378;28;20029;-65
2021/08/02 01:36:08;;;;;;;6.22;2.00;;;;;;;;;;5053094;28;20072;-65
2021/08/02 01:38:57;;;;;;;5.57;2.28;;;;;;;;;;5052668;28;20084;-64
2021/08/02 01:41:48;;;;;;;5.60;2.17;;;;;;;;;;5040219;28;20044;-64
2021/08/02 01:44:36;;;;;;;8.32;2.45;;;;;;;;;;5051016;28;20045;-63
2021/08/02 01:47:26;;;;;;;4.85;2.25;;;;;;;;;;5050908;28;20045;-63
2021/08/02 01:50:28;;;;;;;9.27;2.35;;;;;;;;;;5017642;28;20060;-64
2021/08/02 01:53:19;;;;;;;3.03;1.95;;;;;;;;;;5031150;28;20120;-63
2021/08/02 01:56:08;;;;;;;6.55;2.08;;;;;;;;;;5032265;28;20042;-64
2021/08/02 01:58:59;;;;;;;6.65;2.30;;;;;;;;;;5020504;28;20128;-64
2021/08/02 02:02:01;;;;;;;6.18;2.22;;;;;;;;;;5048270;28;20420;-64
2021/08/02 02:05:08;;;;;;;5.50;1.70;;;;;;;;;;5050876;28;20176;-63
2021/08/02 02:07:57;;;;;;;8.50;2.28;;;;;;;;;;5054818;28;20048;-65
2021/08/02 02:10:53;;;;;;;3.65;1.88;;;;;;;;;;5019539;28;20111;-64
2021/08/02 02:13:47;;;;;;;6.25;2.60;;;;;;;;;;5019972;28;20041;-65
2021/08/02 02:16:32;;;;;;;3.95;2.08;;;;;;;;;;5042062;28;20049;-64
2021/08/02 02:19:20;;;;;;;3.05;1.63;;;;;;;;;;5049114;28;20044;-63
2021/08/02 02:22:05;;;;;;;7.25;2.60;;;;;;;;;;5051911;28;20146;-64
2021/08/02 02:24:52;;;;;;;6.80;2.00;;;;;;;;;;5053116;28;20057;-64
2021/08/02 02:27:38;;;;;;;6.00;2.05;;;;;;;;;;5051040;28;20049;-65
2021/08/02 02:30:28;;;;;;;5.00;1.73;;;;;;;;;;5040069;28;20041;-64
2021/08/02 02:33:15;;;;;;;8.88;2.05;;;;;;;;;;5056048;28;20492;-64
2021/08/02 02:36:02;;;;;;;4.13;1.83;;;;;;;;;;5055396;28;20590;-63
2021/08/02 02:38:47;;;;;;;8.18;1.80;;;;;;;;;;5055770;28;20067;-64
2021/08/02 02:41:33;;;;;;;5.75;2.45;;;;;;;;;;5053990;28;20049;-63
2021/08/02 02:44:21;;;;;;;7.20;2.22;;;;;;;;;;5054470;28;20045;-64
2021/08/02 02:47:06;;;;;;;4.53;1.88;;;;;;;;;;5054526;28;20057;-63
2021/08/02 02:49:53;;;;;;;6.70;1.98;;;;;;;;;;5054086;28;20136;-64
2021/08/02 02:52:38;;;;;;;7.78;2.38;;;;;;;;;;5055536;28;20055;-64
2021/08/02 02:55:24;;;;;;;6.85;2.17;;;;;;;;;;5054215;28;20492;-63
2021/08/02 02:58:11;;;;;;;7.47;2.45;;;;;;;;;;5040855;28;20049;-64
2021/08/02 03:00:58;;;;;;;7.18;2.47;;;;;;;;;;5054075;28;20045;-64
2021/08/02 03:03:45;;;;;;;5.22;2.03;;;;;;;;;;5054127;28;20045;-65
2021/08/02 03:06:31;;;;;;;5.03;2.40;;;;;;;;;;5055233;28;20508;-64
2021/08/02 03:09:19;;;;;;;5.40;2.17;;;;;;;;;;5055751;28;20056;-63
2021/08/02 03:12:04;;;;;;;5.25;2.35;;;;;;;;;;5053446;28;20041;-63
2021/08/02 03:14:50;;;;;;;7.68;2.05;;;;;;;;;;5054770;28;20382;-63
2021/08/02 03:17:35;;;;;;;6.80;2.40;;;;;;;;;;5055592;28;20056;-64
2021/08/02 03:20:20;;;;;;;7.07;2.33;;;;;;;;;;5055354;28;20527;-64
2021/08/02 03:23:08;;;;;;;9.80;2.92;;;;;;;;;;5054679;28;20413;-63
2021/08/02 03:25:56;;;;;;;6.03;2.50;;;;;;;;;;5054475;28;20163;-63
2021/08/02 03:28:45;;;;;;;6.03;3.85;;;;;;;;;;5054802;28;20106;-63
2021/08/02 03:31:44;;;;;;;8.52;2.72;;;;;;;;;;5053948;28;20513;-63
2021/08/02 03:34:29;;;;;;;9.88;4.28;;;;;;;;;;5053536;28;20056;-64
2021/08/02 03:37:15;;;;;;;10.35;4.18;;;;;;;;;;5054433;28;20630;-63
2021/08/02 03:40:00;;;;;;;6.38;3.35;;;;;;;;;;5053727;28;20499;-63
2021/08/02 03:42:46;;;;;;;7.45;3.08;;;;;;;;;;5052097;28;20041;-63
2021/08/02 03:45:31;;;;;;;5.82;2.67;;;;;;;;;;5039331;28;20045;-64
2021/08/02 03:48:20;;;;;;;9.55;3.92;;;;;;;;;;5054699;28;20684;-64
2021/08/02 03:51:05;;;;;;;11.35;3.35;;;;;;;;;;5056090;28;20061;-64
2021/08/02 03:53:51;;;;;;;6.43;2.92;;;;;;;;;;5055262;28;20048;-65
2021/08/02 03:56:36;;;;;;;7.68;3.75;;;;;;;;;;5056367;28;20081;-64
2021/08/02 03:59:23;;;;;;;9.80;5.28;;;;;;;;;;5053348;28;20045;-64
2021/08/02 04:02:08;;;;;;;9.02;3.63;;;;;;;;;;5053520;28;20068;-64
2021/08/02 04:04:54;;;;;;;7.80;3.67;;;;;;;;;;5054368;28;20045;-64
2021/08/02 04:07:40;;;;;;;10.13;4.47;;;;;;;;;;5054173;28;20052;-64
2021/08/02 04:10:29;;;;;;;9.70;3.80;;;;;;;;;;5054444;28;20049;-63
2021/08/02 04:13:17;;;;;;;8.68;3.75;;;;;;;;;;5053487;28;20398;-63
2021/08/02 04:16:05;;;;;;;12.65;4.72;;;;;;;;;;5054005;28;20053;-63
2021/08/02 04:18:51;;;;;;;6.40;4.28;;;;;;;;;;5055147;28;20045;-64
2021/08/02 04:21:36;;;;;;;8.27;3.97;;;;;;;;;;5054272;28;20041;-63
2021/08/02 04:24:22;;;;;;;8.25;3.50;;;;;;;;;;5052508;28;20548;-63
2021/08/02 04:27:07;;;;;;;3.83;3.10;;;;;;;;;;5053634;28;20565;-63
2021/08/02 04:29:53;;;;;;;7.22;3.55;;;;;;;;;;5053635;28;20040;-63
2021/08/02 04:32:43;;;;;;;7.75;3.20;;;;;;;;;;5053613;28;20044;-63
2021/08/02 04:35:28;;;;;;;7.53;4.07;;;;;;;;;;5053006;28;20501;-64
2021/08/02 04:38:14;;;;;;;7.70;3.72;;;;;;;;;;5054887;28;20051;-63
2021/08/02 04:40:59;;;;;;;8.48;3.90;;;;;;;;;;5053923;28;20040;-64
2021/08/02 04:43:44;;;;;;;6.53;3.05;;;;;;;;;;5053920;28;20045;-65
2021/08/02 04:46:30;;;;;;;6.90;3.33;;;;;;;;;;5055844;28;20045;-63
2021/08/02 04:49:16;;;;;;;4.85;3.40;;;;;;;;;;5052773;28;20493;-63
2021/08/02 04:52:01;;;;;;;11.38;3.70;;;;;;;;;;5053320;28;20079;-63
2021/08/02 04:54:46;;;;;;;8.30;3.97;;;;;;;;;;5051174;28;20573;-63
2021/08/02 04:57:32;;;;;;;10.68;4.28;;;;;;;;;;5053052;28;20099;-63
2021/08/02 05:00:17;;;;;;;4.72;3.20;;;;;;;;;;5051431;28;20067;-63
2021/08/02 05:03:05;;;;;;;6.15;3.20;;;;;;;;;;5061072;28;20040;-63
2021/08/02 05:05:53;;;;;;;7.90;3.28;;;;;;;;;;5059244;28;20052;-63
2021/08/02 05:08:39;;;;;;;7.95;3.60;;;;;;;;;;5059617;28;20570;-63
2021/08/02 05:11:24;;;;;;;6.55;3.45;;;;;;;;;;5060664;28;20417;-63
2021/08/02 05:14:10;;;;;;;9.43;3.88;;;;;;;;;;5062651;28;20064;-63
2021/08/02 05:16:55;;;;;;;8.57;3.65;;;;;;;;;;5061918;28;20044;-64
2021/08/02 05:19:40;;;;;;;8.48;3.72;;;;;;;;;;5054158;28;20052;-64
2021/08/02 05:22:26;;;;;;;6.78;3.33;;;;;;;;;;5054271;28;20508;-64
2021/08/02 05:25:11;;;;;;;10.27;3.85;;;;;;;;;;5052880;28;20049;-64
2021/08/02 05:27:56;;;;;;;6.68;3.28;;;;;;;;;;5053183;28;20573;-64
2021/08/02 05:30:42;;;;;;;7.10;2.80;;;;;;;;;;5052531;28;20412;-64
2021/08/02 05:33:28;;;;;;;8.63;2.80;;;;;;;;;;5052320;28;20175;-64
2021/08/02 05:36:13;;;;;;;7.70;2.92;;;;;;;;;;5051333;28;20052;-64
2021/08/02 05:38:59;;;;;;;8.65;2.70;;;;;;;;;;5052488;28;20055;-63
2021/08/02 05:41:44;;;;;;;6.60;2.80;;;;;;;;;;5052459;28;20053;-63
2021/08/02 05:44:29;;;;;;;7.65;2.50;;;;;;;;;;5057683;28;20037;-63
2021/08/02 05:47:15;;;;;;;5.38;2.20;;;;;;;;;;5056634;28;20170;-63
2021/08/02 05:50:00;;;;;;;13.15;2.13;;;;;;;;;;5059449;28;20045;-64
2021/08/02 05:52:46;;;;;;;6.95;1.95;;;;;;;;;;5060597;28;20040;-64
2021/08/02 05:55:34;;;;;;;10.50;2.67;;;;;;;;;;5066541;28;20500;-64
2021/08/02 05:58:20;;;;;;;10.02;2.03;;;;;;;;;;5065304;28;20404;-64
2021/08/02 06:01:05;;;;;;;6.65;1.85;;;;;;;;;;5058969;28;20044;-64
2021/08/02 06:03:50;;;;;;;8.02;1.88;;;;;;;;;;5058563;28;20048;-64
2021/08/02 06:06:35;;;;;;;7.45;1.85;;;;;;;;;;5055391;28;21388;-64
2021/08/02 06:09:24;;;;;;;7.50;2.10;;;;;;;;;;5062391;28;20049;-64
2021/08/02 06:12:25;;;;;;;8.98;1.95;;;;;;;;;;5064608;28;20048;-64
2021/08/02 06:15:11;;;;;;;5.43;2.35;;;;;;;;;;5057162;28;20041;-64
2021/08/02 06:17:56;;;;;;;3.45;1.77;;;;;;;;;;5058828;28;20045;-64
2021/08/02 06:20:41;;;;;;;6.72;1.63;;;;;;;;;;5056748;28;20049;-64
2021/08/02 06:23:26;;;;;;;6.57;1.58;;;;;;;;;;5057048;28;20047;-64
2021/08/02 06:26:13;;;;;;;6.25;1.42;;;;;;;;;;5063638;28;20051;-63
2021/08/02 06:28:59;;;;;;;7.40;1.25;;;;;;;;;;5063529;28;20045;-64
2021/08/02 06:31:44;;;;;;;5.53;1.48;;;;;;;;;;5048986;28;20053;-64
2021/08/02 06:34:42;;;;;;;9.98;1.30;;;;;;;;;;5028812;28;20049;-64
2021/08/02 06:37:27;;;;;;;2.90;1.05;;;;;;;;;;5031151;28;20077;-64
2021/08/02 06:40:13;;;;;;;6.28;1.10;;;;;;;;;;5049583;28;20505;-64
2021/08/02 06:42:58;;;;;;;6.95;1.70;;;;;;;;;;5051405;28;20101;-64
2021/08/02 06:45:43;;;;;;;4.90;1.40;;;;;;;;;;5040398;28;20061;-65
2021/08/02 06:48:28;;;;;;;8.88;1.35;;;;;;;;;;5046026;28;20049;-64
2021/08/02 06:51:14;;;;;;;4.07;1.27;;;;;;;;;;5047028;28;20052;-64
2021/08/02 06:54:00;;;;;;;4.95;1.27;;;;;;;;;;5049074;28;20045;-64
2021/08/02 06:56:46;;;;;;;5.25;1.25;;;;;;;;;;5048607;28;20523;-64
2021/08/02 06:59:32;;;;;;;9.52;1.48;;;;;;;;;;5048047;28;20045;-64
2021/08/02 07:02:17;;;;;;;3.28;1.30;;;;;;;;;;5049172;28;20118;-65
2021/08/02 07:05:02;;;;;;;6.40;1.02;;;;;;;;;;5049263;28;20037;-64
2021/08/02 07:10:44;;;;;;;6.60;1.10;;;;;;;;;;4986968;28;20054;-64
2021/08/02 07:13:29;;;;;;;3.50;0.70;;;;;;;;;;4967275;28;20526;-63
2021/08/02 07:16:14;;;;;;;5.55;0.95;;;;;;;;;;4972740;28;20057;-63
2021/08/02 07:18:59;;;;;;;6.90;1.38;;;;;;;;;;4986476;28;20417;-63
2021/08/02 07:21:45;;;;;;;6.40;1.00;;;;;;;;;;4993149;28;20062;-63
2021/08/02 07:24:30;;;;;;;2.45;0.70;;;;;;;;;;4983814;28;20049;-63
2021/08/02 07:27:15;;;;;;;5.78;0.88;;;;;;;;;;4990049;28;20081;-63
2021/08/02 07:30:01;;;;;;;6.57;1.35;;;;;;;;;;4997872;28;20082;-63
2021/08/02 07:32:46;;;;;;;4.90;1.00;;;;;;;;;;4995493;28;20042;-63
2021/08/02 07:35:31;;;;;;;7.25;1.13;;;;;;;;;;4994660;28;20076;-62
2021/08/02 07:38:17;;;;;;;4.18;0.73;;;;;;;;;;4995236;28;20060;-65
2021/08/02 07:41:02;;;;;;;6.05;1.10;;;;;;;;;;4992263;28;20072;-65
2021/08/02 07:43:48;;;;;;;5.07;1.13;;;;;;;;;;4990160;28;20088;-64
2021/08/02 07:46:33;;;;;;;4.38;1.20;;;;;;;;;;4990941;28;20057;-65
2021/08/02 07:49:18;;;;;;;7.65;1.73;;;;;;;;;;4991936;28;20054;-64
2021/08/02 07:52:04;;;;;;;5.45;1.00;;;;;;;;;;4992674;28;20065;-65
2021/08/02 07:54:49;;;;;;;8.82;1.63;;;;;;;;;;4992364;28;20049;-65
2021/08/02 07:57:35;;;;;;;7.90;1.13;;;;;;;;;;4992887;28;20058;-65
2021/08/02 08:00:21;;;;;;;5.40;1.17;;;;;;;;;;4973852;28;20054;-64
2021/08/02 08:03:06;;;;;;;5.57;0.77;;;;;;;;;;4972827;28;20507;-65
2021/08/02 08:05:51;;;;;;;3.53;1.27;;;;;;;;;;4972775;28;20057;-65
2021/08/02 08:08:36;;;;;;;4.72;1.40;;;;;;;;;;4977915;28;20050;-65
2021/08/02 08:11:21;;;;;;;5.55;0.80;;;;;;;;;;4980042;28;20048;-65
2021/08/02 08:14:06;;;;;;;6.40;0.95;;;;;;;;;;5011469;28;20042;-65
2021/08/02 08:16:52;;;;;;;5.25;1.30;;;;;;;;;;5011616;28;20042;-65
2021/08/02 08:19:37;;;;;;;5.97;1.10;;;;;;;;;;5001567;28;20050;-65
2021/08/02 08:22:22;;;;;;;6.68;0.98;;;;;;;;;;4991936;28;20049;-65
2021/08/02 08:25:08;;;;;;;4.60;1.15;;;;;;;;;;5006979;28;20468;-66
2021/08/02 08:27:53;;;;;;;4.68;1.45;;;;;;;;;;5010827;28;20189;-66
2021/08/02 08:30:38;;;;;;;4.07;0.82;;;;;;;;;;4991153;28;20120;-65
2021/08/02 08:33:26;;;;;;;4.90;0.82;;;;;;;;;;4991934;28;20061;-65
2021/08/02 08:36:14;;;;;;;3.42;1.20;;;;;;;;;;4991768;28;20114;-65
2021/08/02 08:39:00;;;;;;;3.50;0.50;;;;;;;;;;4990937;28;20057;-65
2021/08/02 08:41:45;;;;;;;3.42;0.80;;;;;;;;;;4972637;28;20145;-65
2021/08/02 08:44:30;;;;;;;3.75;0.88;;;;;;;;;;4972281;28;20534;-65
2021/08/02 08:47:15;;;;;;;8.27;0.95;;;;;;;;;;4991764;28;20048;-65
2021/08/02 08:50:01;;;;;;;4.75;0.82;;;;;;;;;;4990127;28;20146;-65
2021/08/02 08:52:46;;;;;;;5.07;1.15;;;;;;;;;;4992190;28;20057;-66
2021/08/02 08:55:31;;;;;;;2.35;0.65;;;;;;;;;;4990867;28;20065;-65
2021/08/02 08:58:17;;;;;;;2.80;0.68;;;;;;;;;;4988477;28;20054;-65
2021/08/02 09:01:03;;;;;;;3.95;0.90;;;;;;;;;;4989212;28;20038;-65
2021/08/02 09:03:52;;;;;;;3.70;0.82;;;;;;;;;;4990825;28;20806;-65
2021/08/02 09:06:47;;;;;;;5.88;1.00;;;;;;;;;;4989329;28;20501;-65
2021/08/02 09:09:36;;;;;;;1.95;0.68;;;;;;;;;;5002829;28;20123;-65
2021/08/02 09:12:22;;;;;;;2.38;0.75;;;;;;;;;;4992957;28;20413;-65
2021/08/02 09:15:08;;;;;;;5.57;0.95;;;;;;;;;;4989461;28;20068;-65
2021/08/02 09:17:53;;;;;;;5.40;0.98;;;;;;;;;;4989998;28;20502;-65
2021/08/02 09:20:39;;;;;;;6.47;1.23;;;;;;;;;;4990506;28;20506;-65
2021/08/02 09:23:24;;;;;;;3.35;0.80;;;;;;;;;;4971862;28;20139;-65
2021/08/02 09:26:09;;;;;;;3.10;0.70;;;;;;;;;;4970969;28;20132;-65
2021/08/02 09:28:55;;;;;;;4.85;2.00;;;;;;;;;;4970811;28;20141;-65
2021/08/02 09:31:41;;;;;;;5.57;1.30;;;;;;;;;;4961867;28;20049;-65
2021/08/02 09:34:27;;;;;;;2.65;1.02;;;;;;;;;;4988799;28;20108;-65
2021/08/02 09:37:24;;;;;;;6.28;1.08;;;;;;;;;;4989149;28;20042;-65
2021/08/02 09:40:10;;;;;;;5.10;1.00;;;;;;;;;;4988441;28;20053;-65
2021/08/02 09:42:58;;;;;;;3.53;0.98;;;;;;;;;;4987831;28;20430;-65
2021/08/02 09:45:47;;;;;;;4.82;1.58;;;;;;;;;;4990286;28;20093;-65
2021/08/02 09:48:42;;;;;;;2.97;1.08;;;;;;;;;;4990664;28;20057;-66
2021/08/02 09:51:28;;;;;;;3.63;0.73;;;;;;;;;;4976086;28;20057;-65
2021/08/02 09:54:22;;;;;;;4.47;0.68;;;;;;;;;;4989573;28;20708;-65
2021/08/02 09:57:08;;;;;;;7.45;1.13;;;;;;;;;;4990265;28;20097;-65
2021/08/02 09:59:54;;;;;;;4.60;0.85;;;;;;;;;;4989517;28;20057;-65
2021/08/02 10:02:41;;;;;;;5.55;0.82;;;;;;;;;;4989925;28;20458;-65
2021/08/02 10:05:26;;;;;;;5.70;0.73;;;;;;;;;;4989346;28;20418;-65
2021/08/02 10:08:11;;;;;;;3.60;0.73;;;;;;;;;;4989731;28;20071;-65
2021/08/02 10:10:57;;;;;;;4.28;0.93;;;;;;;;;;5009010;28;20122;-65
2021/08/02 10:13:43;;;;;;;3.90;0.70;;;;;;;;;;5010048;28;20041;-65
2021/08/02 10:16:28;;;;;;;1.50;0.60;;;;;;;;;;4991914;28;20038;-65
2021/08/02 10:19:17;;;;;;;3.28;0.70;;;;;;;;;;4978326;28;20053;-65
2021/08/02 10:22:02;;;;;;;2.58;0.70;;;;;;;;;;4990063;28;20053;-65
2021/08/02 10:24:52;;;;;;;2.35;0.57;;;;;;;;;;4977522;28;20072;-64
2021/08/02 10:27:37;;;;;;;4.75;0.55;;;;;;;;;;4992159;28;20128;-64
2021/08/02 10:30:23;;;;;;;4.68;0.73;;;;;;;;;;4992771;28;20065;-65
2021/08/02 10:33:09;;;;;;;2.92;0.80;;;;;;;;;;5011835;28;20053;-64
2021/08/02 10:35:54;;;;;;;2.25;0.50;;;;;;;;;;5006194;28;20144;-64
2021/08/02 10:38:43;;;;;;;1.52;0.50;;;;;;;;;;4988867;28;20120;-64
2021/08/02 10:41:29;;;;;;;3.15;0.55;;;;;;;;;;4988615;28;20052;-64
2021/08/02 10:44:15;;;;;;;3.95;1.00;;;;;;;;;;4988924;28;20058;-64
2021/08/02 10:47:01;;;;;;;2.58;0.60;;;;;;;;;;4989919;28;20046;-65
2021/08/02 10:49:50;;;;;;;3.53;0.60;;;;;;;;;;4989351;28;20061;-64
2021/08/02 10:52:36;;;;;;;2.45;0.52;;;;;;;;;;5003435;28;20127;-64
2021/08/02 10:55:21;;;;;;;4.68;0.45;;;;;;;;;;5013035;28;20065;-65
2021/08/02 10:58:07;;;;;;;4.22;0.60;;;;;;;;;;4996233;28;20054;-64
2021/08/02 11:00:56;;;;;;;3.05;0.77;;;;;;;;;;4991940;28;20046;-64
2021/08/02 11:03:42;;;;;;;0.77;0.40;;;;;;;;;;4994668;28;20047;-65
2021/08/02 11:06:28;;;;;;;3.40;0.70;;;;;;;;;;4994771;28;20046;-64
2021/08/02 11:09:13;;;;;;;1.92;0.40;;;;;;;;;;5001091;28;20112;-64
2021/08/02 11:12:11;;;;;;;1.35;0.40;;;;;;;;;;4993122;28;20054;-64
2021/08/02 11:14:56;;;;;;;3.88;0.63;;;;;;;;;;4985342;28;20450;-64
2021/08/02 11:17:42;;;;;;;3.35;0.60;;;;;;;;;;4985052;28;20581;-64
2021/08/02 11:20:27;;;;;;;3.03;0.40;;;;;;;;;;4982333;28;20507;-64
2021/08/02 11:23:12;;;;;;;3.53;0.50;;;;;;;;;;4990162;28;20173;-65
2021/08/02 11:26:10;;;;;;;2.75;0.50;;;;;;;;;;4981232;28;20030;-64
2021/08/02 11:28:56;;;;;;;4.53;0.50;;;;;;;;;;5013943;28;20050;-65
2021/08/02 11:31:41;;;;;;;2.67;0.40;;;;;;;;;;5014915;28;20058;-64
2021/08/02 11:34:27;;;;;;;2.13;0.57;;;;;;;;;;5000326;28;20181;-64
2021/08/02 11:37:15;;;;;;;4.50;0.80;;;;;;;;;;4993977;28;20042;-64
2021/08/02 11:40:02;;;;;;;3.15;0.70;;;;;;;;;;4995847;28;20057;-65
2021/08/02 11:42:50;;;;;;;1.13;0.38;;;;;;;;;;4998699;28;20045;-65
2021/08/02 11:45:35;;;;;;;6.00;0.90;;;;;;;;;;4995919;28;20054;-65
2021/08/02 11:48:22;;;;;;;4.70;1.20;;;;;;;;;;4995312;28;20521;-64
2021/08/02 11:51:08;;;;;;;2.28;0.50;;;;;;;;;;4979511;28;20058;-64
2021/08/02 11:53:53;;;;;;;0.82;0.30;;;;;;;;;;4977074;28;20034;-65
2021/08/02 11:56:38;;;;;;;2.15;0.43;;;;;;;;;;4978936;28;20169;-65
2021/08/02 11:59:32;;;;;;;0.70;0.20;;;;;;;;;;4979921;28;20050;-65
2021/08/02 12:02:17;;;;;;;5.40;0.65;;;;;;;;;;4993911;28;20046;-64
2021/08/02 12:05:07;;;;;;;4.07;0.82;;;;;;;;;;4990743;28;20077;-65
2021/08/02 12:07:53;;;;;;;2.50;0.40;;;;;;;;;;4992067;28;20049;-65
2021/08/02 12:10:38;;;;;;;2.30;0.60;;;;;;;;;;4993669;28;20057;-65
2021/08/02 12:13:23;;;;;;;2.97;0.60;;;;;;;;;;4993397;28;20052;-64
2021/08/02 12:16:09;;;;;;;2.15;0.47;;;;;;;;;;4991114;28;20061;-65
2021/08/02 12:19:03;;;;;;;3.88;0.60;;;;;;;;;;4992600;28;20039;-65
2021/08/02 12:21:54;;;;;;;4.47;0.50;;;;;;;;;;4995260;28;20056;-64
2021/08/02 12:24:49;;;;;;;1.05;0.38;;;;;;;;;;5011038;28;20053;-65
2021/08/02 12:27:34;;;;;;;2.17;0.35;;;;;;;;;;4994355;28;20048;-65
2021/08/02 12:30:23;;;;;;;2.17;0.52;;;;;;;;;;4992834;28;20057;-65
2021/08/02 12:33:08;;;;;;;4.28;0.55;;;;;;;;;;4992877;28;21084;-65
2021/08/02 12:35:53;;;;;;;0.65;0.30;;;;;;;;;;4990522;28;20065;-66
2021/08/02 12:38:45;;;;;;;2.10;0.50;;;;;;;;;;4994438;28;20049;-64
2021/08/02 12:41:37;;;;;;;2.47;0.52;;;;;;;;;;5006223;28;20061;-65
2021/08/02 12:44:22;;;;;;;1.92;0.55;;;;;;;;;;5011767;28;20485;-65
2021/08/02 12:47:08;;;;;;;1.35;0.30;;;;;;;;;;4997104;28;20513;-65
2021/08/02 12:49:57;;;;;;;2.05;0.50;;;;;;;;;;4972561;28;20058;-65
2021/08/02 12:52:42;;;;;;;1.92;0.57;;;;;;;;;;4996601;28;20046;-65
2021/08/02 12:55:28;;;;;;;2.40;0.63;;;;;;;;;;4989439;28;20137;-65
2021/08/02 12:58:13;;;;;;;1.85;0.40;;;;;;;;;;4977565;28;20124;-65
2021/08/02 13:00:58;;;;;;;3.10;0.90;;;;;;;;;;4975711;28;20092;-65
2021/08/02 13:03:43;;;;;;;1.77;0.40;;;;;;;;;;5010023;28;20171;-65
2021/08/02 13:06:29;;;;;;;2.08;0.50;;;;;;;;;;5003879;28;20046;-65
2021/08/02 13:09:15;;;;;;;2.08;0.30;;;;;;;;;;4990441;28;20050;-65
2021/08/02 13:12:00;;;;;;;1.95;0.50;;;;;;;;;;4990114;28;20077;-65
2021/08/02 13:14:45;;;;;;;1.75;0.30;;;;;;;;;;4988472;28;20085;-65
2021/08/02 13:17:30;;;;;;;3.67;0.73;;;;;;;;;;4975477;28;20112;-65
2021/08/02 13:20:16;;;;;;;3.55;0.75;;;;;;;;;;4990195;28;20057;-64
2021/08/02 13:23:28;;;;;;;1.30;0.40;;;;;;;;;;5001630;28;20063;-65
2021/08/02 13:29:18;;;;;;;2.53;0.45;;;;;;;;;;4990502;28;19928;-65
2021/08/02 13:32:04;;;;;;;1.55;0.25;;;;;;;;;;4989428;28;20435;-65
2021/08/02 13:34:49;;;;;;;2.80;0.40;;;;;;;;;;4981588;28;20132;-65
2021/08/02 13:37:34;;;;;;;2.17;0.20;;;;;;;;;;4989078;28;20058;-65
2021/08/02 13:40:19;;;;;;;1.73;0.50;;;;;;;;;;4989813;28;20054;-65
2021/08/02 13:43:05;;;;;;;2.67;0.60;;;;;;;;;;4989568;28;20053;-65
2021/08/02 13:45:50;;;;;;;0.75;0.25;;;;;;;;;;4989086;28;20181;-65
2021/08/02 13:48:35;;;;;;;3.83;0.38;;;;;;;;;;4989322;28;20173;-65
2021/08/02 13:51:21;;;;;;;0.88;0.28;;;;;;;;;;4989548;28;20679;-66
2021/08/02 13:54:06;;;;;;;0.65;0.20;;;;;;;;;;4984616;28;20057;-65
2021/08/02 13:56:51;;;;;;;0.80;0.20;;;;;;;;;;4969880;28;20179;-65
2021/08/02 13:59:36;;;;;;;2.00;0.30;;;;;;;;;;4970423;28;20050;-65
2021/08/02 14:02:22;;;;;;;0.70;0.20;;;;;;;;;;4987255;28;20080;-65
2021/08/02 14:05:10;;;;;;;1.17;0.20;;;;;;;;;;4985132;28;20615;-65
2021/08/02 14:07:56;;;;;;;1.75;0.50;;;;;;;;;;4991413;28;20042;-64
2021/08/02 14:10:41;;;;;;;1.35;0.20;;;;;;;;;;4991489;28;20070;-65
2021/08/02 14:13:26;;;;;;;1.60;0.20;;;;;;;;;;4989641;28;20069;-64
2021/08/02 14:16:18;;;;;;;0.90;0.28;;;;;;;;;;4989499;28;20057;-64
2021/08/02 14:19:06;;;;;;;1.23;0.28;;;;;;;;;;4992187;28;20054;-64
2021/08/02 14:21:52;;;;;;;2.65;0.50;;;;;;;;;;4991950;28;20525;-64
2021/08/02 14:24:38;;;;;;;2.75;0.30;;;;;;;;;;4991108;28;20046;-65
2021/08/02 14:27:23;;;;;;;1.17;0.28;;;;;;;;;;4990760;28;20120;-64
2021/08/02 14:30:08;;;;;;;2.17;0.20;;;;;;;;;;4991178;28;20050;-65
2021/08/02 14:32:54;;;;;;;2.08;0.43;;;;;;;;;;4992613;28;20042;-65
2021/08/02 14:35:42;;;;;;;1.33;0.30;;;;;;;;;;4992140;28;20057;-64
2021/08/02 14:38:27;;;;;;;2.92;0.30;;;;;;;;;;4992144;28;20419;-64
2021/08/02 14:41:13;;;;;;;1.35;0.30;;;;;;;;;;4991212;28;20041;-64
2021/08/02 14:44:00;;;;;;;1.23;0.20;;;;;;;;;;4988835;28;20054;-64
2021/08/02 14:46:48;;;;;;;1.77;0.60;;;;;;;;;;4982011;28;20049;-64
2021/08/02 14:49:33;;;;;;;0.75;0.28;;;;;;;;;;5011736;23;20057;-66
2021/08/02 14:52:18;;;;;;;3.33;0.30;;;;;;;;;;5082633;28;20118;-66
2021/08/02 14:55:05;;;;;;;2.15;0.30;;;;;;;;;;5079673;28;20093;-66
2021/08/02 14:57:50;;;;;;;3.80;0.30;;;;;;;;;;5068232;28;20084;-66
2021/08/02 15:00:35;;;;;;;4.70;0.43;;;;;;;;;;5066180;28;20037;-66
2021/08/02 15:03:23;;;;;;;1035.03;260.65;;;;;;;;;;5091021;28;20044;-67
2021/08/02 15:06:08;;;;;;;20.10;5.10;;;;;;;;;;5090975;28;20066;-66
2021/08/02 15:09:04;;;;;;;3.30;0.30;;;;;;;;;;5090187;28;20044;-66
2021/08/02 15:11:50;;;;;;;1.40;0.47;;;;;;;;;;5087763;28;20060;-66
2021/08/02 15:14:35;;;;;;;1.95;0.40;;;;;;;;;;5084562;28;20059;-66
2021/08/02 15:17:21;;;;;;;4.53;0.98;;;;;;;;;;5087307;28;20063;-66
2021/08/02 15:20:07;;;;;;;3.55;0.50;;;;;;;;;;5087461;28;20462;-66
2021/08/02 15:23:13;;;;;;;4.30;0.60;;;;;;;;;;5086414;28;20151;-65
2021/08/02 15:26:00;;;;;;;1.55;0.32;;;;;;;;;;5090959;28;20498;-65
2021/08/02 15:28:51;;;;;;;2.15;0.45;;;;;;;;;;5088052;28;20032;-66
2021/08/02 15:31:36;;;;;;;1.58;0.30;;;;;;;;;;5065341;28;20060;-67
2021/08/02 15:34:21;;;;;;;1.50;0.38;;;;;;;;;;5079075;28;20040;-66
2021/08/02 15:37:10;;;;;;;5.00;0.30;;;;;;;;;;5071535;28;20047;-65
2021/08/02 15:39:55;;;;;;;1.33;0.43;;;;;;;;;;5070710;28;20048;-66
2021/08/02 15:42:41;;;;;;;1.95;0.30;;;;;;;;;;5069346;28;20583;-66
2021/08/02 15:45:27;;;;;;;1.92;0.30;;;;;;;;;;5061284;28;20049;-66
2021/08/02 15:48:12;;;;;;;2.40;0.40;;;;;;;;;;5092718;28;20450;-66
2021/08/02 15:50:59;;;;;;;73.22;3.80;;;;;;;;;;5088648;28;20055;-66
2021/08/02 15:54:03;;;;;;;1.98;0.28;;;;;;;;;;5088115;28;20132;-66
2021/08/02 15:56:48;;;;;;;3.72;0.38;;;;;;;;;;5092570;28;20487;-65
2021/08/02 15:59:36;;;;;;;2.67;0.50;;;;;;;;;;5076603;28;20064;-66
2021/08/02 16:02:24;;;;;;;3.15;0.30;;;;;;;;;;5088243;28;20043;-67
2021/08/02 16:05:10;;;;;;;3.88;0.20;;;;;;;;;;5105691;28;20040;-66
2021/08/02 16:07:56;;;;;;;0.98;0.30;;;;;;;;;;5089481;28;20048;-66
2021/08/02 16:10:42;;;;;;;2.33;0.50;;;;;;;;;;5091247;28;20097;-66
2021/08/02 16:13:29;;;;;;;2.85;0.52;;;;;;;;;;5090379;28;20060;-65
2021/08/02 16:16:15;;;;;;;1.13;0.20;;;;;;;;;;5085459;28;20048;-65
2021/08/02 16:19:03;;;;;;;3.35;0.40;;;;;;;;;;5089181;28;20063;-65
2021/08/02 16:21:48;;;;;;;1.40;0.47;;;;;;;;;;5088232;28;20047;-65
2021/08/02 16:24:34;;;;;;;2.55;0.57;;;;;;;;;;5088998;28;20039;-65
2021/08/02 16:27:19;;;;;;;1.83;0.45;;;;;;;;;;5088517;28;20044;-65
2021/08/02 16:30:05;;;;;;;3.90;1.38;;;;;;;;;;5088878;28;20048;-66
2021/08/02 16:32:50;;;;;;;2.55;0.30;;;;;;;;;;5091940;28;20050;-65
2021/08/02 16:35:36;;;;;;;2.75;1.05;;;;;;;;;;5089116;28;20082;-66
2021/08/02 16:38:21;;;;;;;6.68;0.70;;;;;;;;;;5091232;28;20062;-66
2021/08/02 16:41:06;;;;;;;3.35;0.50;;;;;;;;;;5091748;28;20051;-65
2021/08/02 16:43:52;;;;;;;2.97;0.70;;;;;;;;;;5090440;28;20541;-65
2021/08/02 16:46:37;;;;;;;4.88;0.82;;;;;;;;;;5076263;28;20051;-65